createdAt,value
2023-02-14T00:00:59.234Z,20.23
2023-02-14T00:04:03.034Z,19.20
2023-02-14T00:07:06.114Z,23.40
2023-02-14T00:10:11.320Z,21.80
2023-02-14T00:13:14.054Z,21.52
2023-02-14T00:16:17.296Z,19.73
2023-02-14T00:19:21.823Z,22.30
2023-02-14T00:22:25.900Z,20.45
2023-02-14T00:25:29.807Z,21.02
2023-02-14T00:28:32.620Z,25.75
2023-02-14T00:31:36.027Z,21.40
2023-02-14T00:34:40.837Z,21.12
2023-02-14T00:37:47.377Z,23.80
2023-02-14T00:40:51.333Z,21.52
2023-02-14T00:43:54.219Z,23.30
2023-02-14T00:46:57.008Z,20.25
2023-02-14T00:50:04.578Z,23.45
2023-02-14T00:53:08.729Z,23.30
2023-02-14T00:56:11.878Z,18.23
2023-02-14T00:59:15.085Z,21.42
2023-02-14T01:02:18.847Z,21.30
2023-02-14T01:05:22.765Z,22.67
2023-02-14T01:08:26.179Z,21.33
2023-02-14T01:11:30.413Z,20.20
2023-02-14T01:14:33.279Z,23.33
2023-02-14T01:17:36.533Z,24.02
2023-02-14T01:20:39.971Z,19.73
2023-02-14T01:23:44.601Z,19.70
2023-02-14T01:26:47.319Z,18.62
2023-02-14T01:29:50.452Z,22.75
2023-02-14T01:32:54.398Z,20.17
2023-02-14T01:35:58.395Z,23.33
2023-02-14T01:39:04.636Z,20.75
2023-02-14T01:42:11.583Z,24.83
2023-02-14T01:45:19.691Z,21.23
2023-02-14T01:48:23.900Z,23.60
2023-02-14T01:51:26.727Z,23.27
2023-02-14T01:54:32.894Z,22.60
2023-02-14T01:57:45.824Z,24.10
2023-02-14T02:00:59.320Z,20.17
2023-02-14T02:04:09.692Z,21.30
2023-02-14T02:07:19.541Z,23.15
2023-02-14T02:10:23.113Z,23.27
2023-02-14T02:13:26.263Z,22.30
2023-02-14T02:16:43.406Z,22.67
2023-02-14T02:20:04.496Z,37.13
2023-02-14T02:23:42.167Z,30.90
2023-02-14T02:26:50.892Z,26.62
2023-02-14T02:30:30.156Z,27.13
2023-02-14T02:34:06.650Z,25.58
2023-02-14T02:37:25.032Z,25.20
2023-02-14T02:40:39.993Z,28.23
2023-02-14T02:44:11.194Z,30.55
2023-02-14T02:47:32.722Z,24.73
2023-02-14T02:51:07.126Z,26.87
2023-02-14T02:54:20.836Z,31.27
2023-02-14T02:57:32.860Z,23.58
2023-02-14T03:00:36.485Z,26.98
2023-02-14T03:04:02.786Z,25.35
2023-02-14T03:07:26.327Z,23.97
2023-02-14T03:10:35.285Z,26.62
2023-02-14T03:13:56.632Z,24.27
2023-02-14T03:17:33.479Z,20.67
2023-02-14T03:20:55.178Z,24.08
2023-02-14T03:24:23.378Z,20.83
2023-02-14T03:27:32.705Z,21.85
2023-02-14T03:30:50.856Z,24.80
2023-02-14T03:34:01.682Z,26.60
2023-02-14T03:37:14.438Z,25.05
2023-02-14T03:40:26.005Z,24.50
2023-02-14T03:43:36.695Z,25.08
2023-02-14T03:46:45.458Z,25.35
2023-02-14T03:49:54.051Z,26.42
2023-02-14T03:52:59.677Z,24.90
2023-02-14T03:56:23.956Z,24.85
2023-02-14T03:59:28.796Z,26.48
2023-02-14T04:02:41.261Z,24.55
2023-02-14T04:05:52.587Z,23.45
2023-02-14T04:08:57.443Z,25.52
2023-02-14T04:12:00.197Z,25.58
2023-02-14T04:15:04.306Z,25.37
2023-02-14T04:18:27.187Z,24.52
2023-02-14T04:21:30.620Z,24.90
2023-02-14T04:24:33.776Z,25.08
2023-02-14T04:27:36.488Z,24.67
2023-02-14T04:30:40.357Z,24.73
2023-02-14T04:33:49.456Z,25.00
2023-02-14T04:36:57.622Z,28.10
2023-02-14T04:40:00.911Z,27.40
2023-02-14T04:43:05.174Z,31.30
2023-02-14T04:46:12.381Z,32.63
2023-02-14T04:49:18.359Z,32.35
2023-02-14T04:52:21.140Z,34.83
2023-02-14T04:55:25.224Z,41.08
2023-02-14T04:58:28.314Z,38.80
2023-02-14T05:01:32.555Z,42.15
2023-02-14T05:04:35.331Z,41.92
2023-02-14T05:07:38.814Z,43.57
2023-02-14T05:10:42.456Z,40.15
2023-02-14T05:13:47.459Z,39.63
2023-02-14T05:16:51.449Z,31.33
2023-02-14T05:19:57.590Z,27.55
2023-02-14T05:23:17.282Z,29.65
2023-02-14T05:26:22.345Z,30.48
2023-02-14T05:29:27.838Z,29.33
2023-02-14T05:32:31.232Z,32.50
2023-02-14T05:35:34.162Z,28.55
2023-02-14T05:38:48.755Z,28.40
2023-02-14T05:41:59.408Z,31.00
2023-02-14T05:45:04.073Z,30.42
2023-02-14T05:48:08.364Z,32.22
2023-02-14T05:51:11.990Z,30.08
2023-02-14T05:54:17.376Z,28.92
2023-02-14T05:57:21.218Z,32.03
2023-02-14T06:00:24.547Z,33.77
2023-02-14T06:03:28.976Z,35.05
2023-02-14T06:06:34.643Z,32.28
2023-02-14T06:09:39.673Z,36.70
2023-02-14T06:12:50.212Z,36.75
2023-02-14T06:15:55.378Z,41.33
2023-02-14T06:19:04.432Z,39.90
2023-02-14T06:22:08.512Z,35.93
2023-02-14T06:25:11.898Z,40.88
2023-02-14T06:28:17.175Z,35.55
2023-02-14T06:31:22.743Z,41.53
2023-02-14T06:34:25.963Z,35.33
2023-02-14T06:37:33.145Z,39.85
2023-02-14T06:40:37.798Z,36.53
2023-02-14T06:43:40.668Z,35.73
2023-02-14T06:46:44.180Z,43.00
2023-02-14T06:49:47.483Z,39.45
2023-02-14T06:52:51.622Z,44.08
2023-02-14T06:55:56.707Z,36.65
2023-02-14T06:59:05.009Z,36.60
2023-02-14T07:02:11.621Z,39.10
2023-02-14T07:05:19.271Z,34.47
2023-02-14T07:08:26.954Z,40.85
2023-02-14T07:11:32.548Z,45.22
2023-02-14T07:14:37.464Z,42.20
2023-02-14T07:17:48.882Z,127.00
2023-02-14T07:20:57.303Z,99.95
2023-02-14T07:24:08.772Z,85.45
2023-02-14T07:27:16.278Z,85.87
2023-02-14T07:30:23.310Z,104.33
2023-02-14T07:33:28.255Z,67.97
2023-02-14T07:36:32.195Z,58.65
2023-02-14T07:39:36.557Z,54.25
2023-02-14T07:42:40.774Z,46.22
2023-02-14T07:45:47.333Z,43.20
2023-02-14T07:48:52.086Z,38.55
2023-02-14T07:51:58.448Z,39.38
2023-02-14T07:55:05.213Z,37.70
2023-02-14T07:58:09.410Z,33.95
2023-02-14T08:01:13.267Z,30.77
2023-02-14T08:04:17.711Z,30.98
2023-02-14T08:07:22.141Z,29.52
2023-02-14T08:10:25.929Z,24.30
2023-02-14T08:13:30.249Z,27.05
2023-02-14T08:16:35.315Z,25.43
2023-02-14T08:19:46.107Z,25.52
2023-02-14T08:22:53.419Z,26.10
2023-02-14T08:25:57.158Z,24.25
2023-02-14T08:29:02.166Z,24.10
2023-02-14T08:32:06.811Z,23.10
2023-02-14T08:35:23.797Z,23.40
2023-02-14T08:38:30.982Z,24.40
2023-02-14T08:41:38.470Z,23.58
2023-02-14T08:44:42.698Z,21.45
2023-02-14T08:47:47.183Z,21.23
2023-02-14T08:50:54.766Z,23.92
2023-02-14T08:53:58.401Z,24.12
2023-02-14T08:57:03.540Z,23.08
2023-02-14T09:00:09.127Z,24.27
2023-02-14T09:03:12.255Z,22.20
2023-02-14T09:06:17.701Z,21.45
2023-02-14T09:09:25.456Z,20.30
2023-02-14T09:12:28.730Z,22.05
2023-02-14T09:15:31.742Z,17.90
2023-02-14T09:18:35.766Z,19.77
2023-02-14T09:21:40.926Z,19.85
2023-02-14T09:24:45.429Z,21.35
2023-02-14T09:27:49.648Z,20.35
2023-02-14T09:30:55.646Z,20.25
2023-02-14T09:33:58.976Z,21.07
2023-02-14T09:37:21.064Z,21.25
2023-02-14T09:40:28.434Z,19.80
2023-02-14T09:43:48.899Z,18.55
2023-02-14T09:47:00.865Z,18.80
2023-02-14T09:50:07.767Z,18.60
2023-02-14T09:53:30.420Z,15.57
2023-02-14T09:56:52.229Z,19.75
2023-02-14T10:00:33.930Z,17.17
2023-02-14T10:03:52.688Z,17.33
2023-02-14T10:07:12.244Z,18.23
2023-02-14T10:10:26.224Z,19.98
2023-02-14T10:13:59.375Z,17.17
2023-02-14T10:17:09.242Z,20.30
2023-02-14T10:20:37.986Z,16.75
2023-02-14T10:23:49.498Z,16.23
2023-02-14T10:27:11.678Z,19.80
2023-02-14T10:30:21.954Z,18.95
2023-02-14T10:33:32.447Z,19.52
2023-02-14T10:36:58.376Z,18.48
2023-02-14T10:40:43.434Z,19.73
2023-02-14T10:43:56.246Z,19.67
2023-02-14T10:47:21.822Z,19.23
2023-02-14T10:50:55.157Z,18.55
2023-02-14T10:54:26.046Z,19.77
2023-02-14T10:57:36.847Z,16.97
2023-02-14T11:01:03.711Z,14.10
2023-02-14T11:04:11.684Z,17.55
2023-02-14T11:07:19.591Z,15.90
2023-02-14T11:10:30.501Z,18.05
2023-02-14T11:13:40.309Z,15.67
2023-02-14T11:16:53.213Z,17.62
2023-02-14T11:20:02.355Z,14.80
2023-02-14T11:23:24.962Z,21.80
2023-02-14T11:26:35.316Z,17.65
2023-02-14T11:29:41.990Z,12.73
2023-02-14T11:32:56.162Z,15.23
2023-02-14T11:36:01.354Z,14.45
2023-02-14T11:39:33.612Z,15.85
2023-02-14T11:42:42.815Z,17.30
2023-02-14T11:46:05.982Z,18.23
2023-02-14T11:49:28.691Z,16.17
2023-02-14T11:52:39.515Z,21.65
2023-02-14T11:55:43.438Z,17.23
2023-02-14T11:58:50.655Z,17.58
2023-02-14T12:01:55.238Z,15.47
2023-02-14T12:05:21.234Z,15.00
2023-02-14T12:08:31.937Z,16.60
2023-02-14T12:11:36.371Z,16.10
2023-02-14T12:14:43.904Z,16.92
2023-02-14T12:17:54.091Z,17.13
2023-02-14T12:21:32.514Z,14.75
2023-02-14T12:24:49.226Z,15.40
2023-02-14T12:28:04.415Z,17.27
2023-02-14T12:31:17.238Z,18.37
2023-02-14T12:34:20.764Z,16.17
2023-02-14T12:38:02.705Z,15.90
2023-02-14T12:41:39.238Z,17.42
2023-02-14T12:45:08.710Z,13.65
2023-02-14T12:48:24.196Z,12.63
2023-02-14T12:51:31.334Z,12.60
2023-02-14T12:54:49.515Z,13.85
2023-02-14T12:58:15.481Z,14.73
2023-02-14T13:01:40.608Z,14.13
2023-02-14T13:05:17.705Z,13.73
2023-02-14T13:08:34.188Z,13.33
2023-02-14T13:11:50.076Z,14.68
2023-02-14T13:15:33.629Z,14.93
2023-02-14T13:18:55.407Z,16.37
2023-02-14T13:22:05.150Z,15.73
2023-02-14T13:25:34.024Z,15.37
2023-02-14T13:28:47.120Z,13.05
2023-02-14T13:31:57.480Z,15.75
2023-02-14T13:35:04.438Z,13.55
2023-02-14T13:38:17.175Z,16.25
2023-02-14T13:41:22.540Z,15.37
2023-02-14T13:44:44.075Z,14.02
2023-02-14T13:47:53.156Z,14.27
2023-02-14T13:51:08.695Z,17.08
2023-02-14T13:54:48.639Z,16.87
2023-02-14T13:58:03.446Z,22.03
2023-02-14T14:01:43.202Z,18.75
2023-02-14T14:04:58.172Z,22.87
2023-02-14T14:08:25.469Z,18.27
2023-02-14T14:11:48.121Z,18.20
2023-02-14T14:15:06.550Z,17.03
2023-02-14T14:18:15.714Z,15.38
2023-02-14T14:21:45.145Z,18.35
2023-02-14T14:24:59.585Z,21.55
2023-02-14T14:28:21.152Z,21.08
2023-02-14T14:31:28.866Z,26.30
2023-02-14T14:34:36.412Z,21.80
2023-02-14T14:37:55.078Z,26.80
2023-02-14T14:41:01.316Z,22.00
2023-02-14T14:44:06.986Z,25.12
2023-02-14T14:47:25.160Z,20.33
2023-02-14T14:50:33.918Z,20.83
2023-02-14T14:54:12.887Z,23.15
2023-02-14T14:57:19.381Z,20.52
2023-02-14T15:00:31.292Z,21.02
2023-02-14T15:03:36.553Z,23.67
2023-02-14T15:06:48.829Z,27.17
2023-02-14T15:09:55.339Z,23.77
2023-02-14T15:13:30.076Z,23.45
2023-02-14T15:16:51.216Z,19.20
2023-02-14T15:20:04.389Z,19.97
2023-02-14T15:23:29.277Z,18.55
2023-02-14T15:26:36.308Z,19.73
2023-02-14T15:29:49.319Z,20.40
2023-02-14T15:33:15.165Z,20.20
2023-02-14T15:36:27.954Z,23.33
2023-02-14T15:39:38.171Z,20.98
2023-02-14T15:42:46.174Z,20.73
2023-02-14T15:45:57.933Z,21.15
2023-02-14T15:49:16.251Z,23.95
2023-02-14T15:52:21.974Z,35.43
2023-02-14T15:55:44.608Z,88.93
2023-02-14T15:59:03.200Z,81.70
2023-02-14T16:02:15.666Z,55.70
2023-02-14T16:05:31.268Z,52.85
2023-02-14T16:08:46.751Z,36.23
2023-02-14T16:11:56.310Z,45.83
2023-02-14T16:15:07.213Z,40.03
2023-02-14T16:18:50.099Z,46.17
2023-02-14T16:21:58.471Z,42.17
2023-02-14T16:25:08.145Z,45.10
2023-02-14T16:28:23.560Z,36.58
2023-02-14T16:31:31.533Z,32.92
2023-02-14T16:34:43.167Z,36.42
2023-02-14T16:38:02.056Z,35.95
2023-02-14T16:41:16.248Z,32.57
2023-02-14T16:44:28.179Z,29.05
2023-02-14T16:47:32.883Z,29.67
2023-02-14T16:50:41.157Z,32.58
2023-02-14T16:54:00.096Z,33.83
2023-02-14T16:57:30.135Z,34.80
2023-02-14T17:00:48.363Z,41.92
2023-02-14T17:04:00.449Z,30.05
2023-02-14T17:07:11.200Z,29.35
2023-02-14T17:10:23.175Z,28.38
2023-02-14T17:13:41.239Z,28.73
2023-02-14T17:16:52.619Z,30.90
2023-02-14T17:19:58.486Z,32.85
2023-02-14T17:23:05.490Z,32.35
2023-02-14T17:26:16.146Z,33.50
2023-02-14T17:29:28.059Z,31.70
2023-02-14T17:32:43.255Z,33.83
2023-02-14T17:35:52.251Z,36.25
2023-02-14T17:39:04.176Z,29.77
2023-02-14T17:42:14.639Z,33.17
2023-02-14T17:45:25.400Z,37.00
2023-02-14T17:48:33.398Z,38.05
2023-02-14T17:51:40.191Z,39.47
2023-02-14T17:54:48.179Z,35.10
2023-02-14T17:58:09.635Z,37.38
2023-02-14T18:01:26.194Z,38.67
2023-02-14T18:04:40.773Z,40.90
2023-02-14T18:07:46.040Z,37.13
2023-02-14T18:10:51.228Z,39.20
2023-02-14T18:14:05.187Z,37.72
2023-02-14T18:17:15.367Z,40.87
2023-02-14T18:20:23.431Z,52.35
2023-02-14T18:23:37.637Z,39.65
2023-02-14T18:27:05.250Z,41.50
2023-02-14T18:30:15.171Z,43.20
2023-02-14T18:33:29.612Z,40.53
2023-02-14T18:36:40.520Z,52.40
2023-02-14T18:39:49.331Z,52.03
2023-02-14T18:42:57.508Z,53.60
2023-02-14T18:46:18.667Z,45.20
2023-02-14T18:49:32.060Z,49.33
2023-02-14T18:52:44.584Z,42.25
2023-02-14T18:55:55.135Z,41.30
2023-02-14T18:59:15.093Z,45.47
2023-02-14T19:02:28.181Z,49.20
2023-02-14T19:05:41.199Z,44.20
2023-02-14T19:08:53.153Z,45.42
2023-02-14T19:12:00.163Z,43.97
2023-02-14T19:15:10.104Z,43.05
2023-02-14T19:18:24.154Z,52.45
2023-02-14T19:21:32.233Z,46.57
2023-02-14T19:24:45.437Z,47.92
2023-02-14T19:28:00.158Z,47.88
2023-02-14T19:31:11.196Z,48.40
2023-02-14T19:34:23.286Z,49.00
2023-02-14T19:37:32.093Z,50.40
2023-02-14T19:40:52.372Z,49.92
2023-02-14T19:44:01.294Z,53.83
2023-02-14T19:47:25.317Z,51.33
2023-02-14T19:50:33.176Z,50.87
2023-02-14T19:53:41.160Z,49.47
2023-02-14T19:56:56.147Z,47.35
2023-02-14T20:00:03.214Z,47.13
2023-02-14T20:03:25.313Z,51.33
2023-02-14T20:06:37.196Z,50.38
2023-02-14T20:09:43.127Z,48.80
2023-02-14T20:12:59.177Z,46.92
2023-02-14T20:16:04.301Z,49.13
2023-02-14T20:19:18.161Z,47.20
2023-02-14T20:22:25.501Z,50.22
2023-02-14T20:25:39.067Z,48.70
2023-02-14T20:28:49.024Z,49.60
2023-02-14T20:32:04.132Z,48.72
2023-02-14T20:35:16.365Z,47.55
2023-02-14T20:38:25.174Z,47.05
2023-02-14T20:41:31.078Z,47.17
2023-02-14T20:44:48.048Z,44.58
2023-02-14T20:47:53.874Z,48.47
2023-02-14T20:51:09.357Z,46.50
2023-02-14T20:54:13.597Z,47.80
2023-02-14T20:57:22.157Z,44.00
2023-02-14T21:00:30.146Z,47.05
2023-02-14T21:03:44.244Z,48.90
2023-02-14T21:06:56.034Z,44.35
2023-02-14T21:10:03.850Z,47.62
2023-02-14T21:13:12.546Z,48.85
2023-02-14T21:16:19.351Z,44.03
2023-02-14T21:19:28.584Z,47.57
2023-02-14T21:22:32.746Z,48.72
2023-02-14T21:25:37.104Z,41.92
2023-02-14T21:28:41.395Z,40.75
2023-02-14T21:31:46.710Z,39.73
2023-02-14T21:34:57.094Z,42.20
2023-02-14T21:38:02.288Z,44.75
2023-02-14T21:41:11.192Z,41.17
2023-02-14T21:44:34.683Z,42.63
2023-02-14T21:52:18.174Z,46.37
2023-02-14T21:55:23.276Z,44.80
2023-02-14T21:58:27.024Z,41.27
2023-02-14T22:01:37.450Z,47.08
2023-02-14T22:04:44.347Z,42.60
2023-02-14T22:07:49.196Z,54.55
2023-02-14T22:10:52.830Z,50.83
2023-02-14T22:13:58.209Z,60.30
2023-02-14T22:17:01.274Z,61.53
2023-02-14T22:20:06.188Z,54.60
2023-02-14T22:23:14.069Z,63.87
2023-02-14T22:26:24.598Z,63.55
2023-02-14T22:29:29.649Z,60.55
2023-02-14T22:32:33.167Z,65.07
2023-02-14T22:35:36.347Z,59.77
2023-02-14T22:38:42.414Z,59.45
2023-02-14T22:41:47.856Z,70.05
2023-02-14T22:44:51.145Z,75.28
2023-02-14T22:47:54.430Z,62.75
2023-02-14T22:50:56.876Z,71.90
2023-02-14T22:54:02.652Z,70.10
2023-02-14T22:57:05.795Z,70.40
2023-02-14T23:00:11.801Z,84.10
2023-02-14T23:03:15.471Z,76.97
2023-02-14T23:06:18.394Z,84.20
2023-02-14T23:09:22.640Z,84.00
2023-02-14T23:12:55.094Z,77.55
2023-02-14T23:16:16.824Z,79.32
2023-02-14T23:19:44.800Z,75.57
2023-02-14T23:22:47.645Z,77.00
2023-02-14T23:25:52.396Z,74.12
2023-02-14T23:28:55.697Z,70.60
2023-02-14T23:31:59.688Z,77.37
2023-02-14T23:35:02.693Z,78.22
2023-02-14T23:38:06.144Z,77.40
2023-02-14T23:41:31.024Z,72.27
2023-02-14T23:44:35.249Z,77.82
2023-02-14T23:47:38.077Z,72.53
2023-02-14T23:50:41.648Z,69.57
2023-02-14T23:53:44.667Z,75.45
2023-02-14T23:56:48.241Z,77.03
2023-02-14T23:59:52.997Z,75.60
